Time;durP1;ratioP1;P1;durP2;ratioP2;P2;SDS_P1;SDS_P2;PMS_P1;PMS_P2;Temp;Humidity;BMP_temperature;BMP_pressure;BME280_temperature;BME280_humidity;BME280_pressure;Samples;Min_cycle;Max_cycle;Signal;HPM_P1;HPM_P2
2023/05/06 00:01:57;;;;;;;4.30;3.00;;;13.50;99.90;;;;;;4970065;28;20469;-76
2023/05/06 00:04:23;;;;;;;3.10;2.90;;;13.40;99.90;;;;;;4960506;28;20590;-76
2023/05/06 00:06:50;;;;;;;3.17;2.87;;;13.40;99.90;;;;;;4954675;28;20496;-77
2023/05/06 00:09:16;;;;;;;3.43;3.00;;;13.30;99.90;;;;;;4958079;28;20458;-77
2023/05/06 00:11:44;;;;;;;3.67;3.10;;;13.30;99.90;;;;;;4954772;28;20477;-76
2023/05/06 00:14:12;;;;;;;4.50;2.97;;;13.30;99.90;;;;;;4954352;28;20458;-76
2023/05/06 00:16:39;;;;;;;2.93;2.60;;;13.30;99.90;;;;;;4960057;28;20457;-77
2023/05/06 00:19:06;;;;;;;7.43;2.60;;;13.30;99.90;;;;;;4974061;28;20461;-76
2023/05/06 00:21:33;;;;;;;5.33;2.87;;;13.20;99.90;;;;;;4973852;28;20566;-77
2023/05/06 00:23:59;;;;;;;3.07;2.60;;;13.20;99.90;;;;;;4957208;28;20453;-76
2023/05/06 00:26:26;;;;;;;10.47;3.87;;;13.20;99.90;;;;;;4954532;28;20541;-76
2023/05/06 00:28:52;;;;;;;5.40;2.90;;;13.10;99.90;;;;;;4954705;28;20548;-76
2023/05/06 00:31:21;;;;;;;6.60;3.43;;;13.20;99.90;;;;;;4954964;28;20529;-77
2023/05/06 00:33:48;;;;;;;6.83;3.00;;;13.10;99.90;;;;;;4954364;28;20458;-77
2023/05/06 00:36:14;;;;;;;3.40;3.10;;;13.10;99.90;;;;;;4964930;28;20488;-76
2023/05/06 00:38:41;;;;;;;3.53;2.73;;;13.00;99.90;;;;;;4973648;28;20500;-77
2023/05/06 00:41:07;;;;;;;5.03;3.30;;;12.90;99.90;;;;;;4965583;28;20503;-76
2023/05/06 00:43:34;;;;;;;6.63;2.73;;;12.90;99.90;;;;;;4971834;28;20456;-76
2023/05/06 00:46:01;;;;;;;4.63;2.70;;;12.80;99.90;;;;;;4955128;28;20489;-77
2023/05/06 00:48:29;;;;;;;3.00;2.80;;;12.80;99.90;;;;;;4955422;28;20470;-76
2023/05/06 00:50:56;;;;;;;3.03;2.83;;;12.70;99.90;;;;;;4954271;28;20990;-77
2023/05/06 00:53:22;;;;;;;3.53;2.60;;;12.70;99.90;;;;;;4961252;28;20488;-77
2023/05/06 00:55:50;;;;;;;4.40;2.90;;;12.60;99.90;;;;;;4965194;28;20512;-77
2023/05/06 00:58:18;;;;;;;4.50;2.70;;;12.60;99.90;;;;;;4954682;28;20473;-76
2023/05/06 01:00:45;;;;;;;3.93;2.60;;;12.60;99.90;;;;;;4953943;28;20481;-77
2023/05/06 01:03:12;;;;;;;4.50;2.73;;;12.60;99.90;;;;;;4960038;28;20875;-76
2023/05/06 01:05:51;;;;;;;3.37;3.07;;;12.50;99.90;;;;;;4971196;28;20693;-76
2023/05/06 01:08:25;;;;;;;3.50;3.20;;;12.50;99.90;;;;;;4973137;28;20457;-76
2023/05/06 01:10:55;;;;;;;5.67;3.63;;;12.50;99.90;;;;;;4968828;28;20553;-77
2023/05/06 01:13:29;;;;;;;7.80;3.60;;;12.50;99.90;;;;;;4971478;28;20475;-76
2023/05/06 01:16:00;;;;;;;6.83;3.37;;;12.50;99.90;;;;;;4969336;28;20505;-77
2023/05/06 01:18:31;;;;;;;3.43;3.13;;;12.40;99.90;;;;;;4954379;28;20458;-77
2023/05/06 01:21:00;;;;;;;4.27;3.13;;;12.40;99.90;;;;;;4962064;28;20868;-76
2023/05/06 01:23:28;;;;;;;3.37;3.13;;;12.20;99.90;;;;;;4969468;28;20464;-76
2023/05/06 01:25:55;;;;;;;5.13;2.80;;;12.10;99.90;;;;;;4955590;28;20552;-76
2023/05/06 01:28:21;;;;;;;5.40;3.00;;;12.10;99.90;;;;;;4961488;28;20869;-76
2023/05/06 01:30:55;;;;;;;3.33;3.03;;;12.00;99.90;;;;;;4953129;28;20477;-76
2023/05/06 01:33:31;;;;;;;7.10;3.37;;;12.00;99.90;;;;;;4953612;28;20458;-76
2023/05/06 01:36:08;;;;;;;3.90;3.60;;;12.00;99.90;;;;;;4953070;28;20449;-77
2023/05/06 01:38:41;;;;;;;7.00;3.20;;;11.90;99.90;;;;;;4954163;28;20449;-77
2023/05/06 01:41:11;;;;;;;6.60;3.23;;;11.90;99.90;;;;;;4967299;28;20524;-77
2023/05/06 01:43:41;;;;;;;4.83;3.70;;;11.90;99.90;;;;;;4969610;28;20949;-76
2023/05/06 01:46:13;;;;;;;3.93;3.63;;;11.90;99.90;;;;;;4972335;28;20547;-77
2023/05/06 01:48:41;;;;;;;4.70;3.53;;;11.90;99.90;;;;;;4958063;28;20462;-77
2023/05/06 01:51:07;;;;;;;5.23;4.13;;;11.90;99.90;;;;;;4961927;28;20482;-77
2023/05/06 01:53:35;;;;;;;4.37;3.87;;;11.90;99.90;;;;;;4964377;28;20528;-76
2023/05/06 01:56:02;;;;;;;4.30;3.90;;;11.90;99.90;;;;;;4967359;28;21166;-77
2023/05/06 01:58:28;;;;;;;5.03;4.20;;;11.90;99.90;;;;;;4961337;28;20516;-77
2023/05/06 02:00:55;;;;;;;6.90;4.40;;;11.90;99.90;;;;;;4972205;28;20544;-76
2023/05/06 02:03:22;;;;;;;4.87;3.57;;;12.00;99.90;;;;;;4962858;28;20462;-76
2023/05/06 02:05:49;;;;;;;4.57;4.10;;;11.90;99.90;;;;;;4959604;28;20461;-76
2023/05/06 02:08:15;;;;;;;4.37;3.97;;;12.00;99.90;;;;;;4963993;28;20488;-76
2023/05/06 02:10:43;;;;;;;4.60;3.90;;;12.00;99.90;;;;;;4962591;28;20488;-76
2023/05/06 02:13:11;;;;;;;6.33;3.87;;;12.00;99.90;;;;;;4965702;28;20512;-76
2023/05/06 02:15:37;;;;;;;4.47;4.07;;;12.00;99.90;;;;;;4970913;28;20941;-77
2023/05/06 02:18:04;;;;;;;3.70;3.50;;;11.90;99.90;;;;;;4960927;28;20453;-76
2023/05/06 02:20:31;;;;;;;4.50;4.10;;;11.90;99.90;;;;;;4963662;28;20479;-77
2023/05/06 02:22:57;;;;;;;4.23;3.83;;;11.80;99.90;;;;;;4960952;28;20486;-77
2023/05/06 02:25:24;;;;;;;13.30;3.87;;;11.80;99.90;;;;;;4960640;28;20935;-77
2023/05/06 02:27:52;;;;;;;5.50;3.90;;;11.80;99.90;;;;;;4962942;28;20497;-76
2023/05/06 02:30:19;;;;;;;12.80;4.10;;;11.70;99.90;;;;;;4963128;28;21095;-77
2023/05/06 02:32:45;;;;;;;4.67;3.70;;;11.70;99.90;;;;;;4962124;28;20491;-76
2023/05/06 02:35:12;;;;;;;4.50;3.37;;;11.70;99.90;;;;;;4963390;28;20495;-76
2023/05/06 02:37:39;;;;;;;4.30;3.90;;;11.60;99.90;;;;;;4970754;28;20461;-77
2023/05/06 02:40:07;;;;;;;10.03;4.00;;;11.50;99.90;;;;;;4957050;28;20899;-77
2023/05/06 02:42:34;;;;;;;4.27;3.97;;;11.50;99.90;;;;;;4963714;28;20460;-77
2023/05/06 02:45:02;;;;;;;5.70;4.10;;;11.50;99.90;;;;;;4967701;28;20880;-76
2023/05/06 02:47:29;;;;;;;11.80;5.43;;;11.40;99.90;;;;;;4960165;28;20486;-77
2023/05/06 02:49:56;;;;;;;6.57;4.73;;;11.30;99.90;;;;;;4963227;28;20881;-76
2023/05/06 02:52:22;;;;;;;6.57;4.23;;;11.30;99.90;;;;;;4963699;28;20469;-76
2023/05/06 02:54:50;;;;;;;6.63;4.80;;;11.20;99.90;;;;;;4964877;28;20453;-76
2023/05/06 02:57:17;;;;;;;5.73;4.80;;;11.20;99.90;;;;;;4960281;28;20449;-77
2023/05/06 02:59:43;;;;;;;5.87;5.13;;;11.20;99.90;;;;;;4961972;28;20473;-76
2023/05/06 03:02:11;;;;;;;5.20;4.70;;;11.20;99.90;;;;;;4966324;28;20454;-77
2023/05/06 03:04:38;;;;;;;11.67;4.70;;;11.10;99.90;;;;;;4963468;28;20457;-76
2023/05/06 03:07:05;;;;;;;7.40;4.50;;;11.20;99.90;;;;;;4964593;28;20559;-76
2023/05/06 03:09:31;;;;;;;5.00;4.50;;;11.20;99.90;;;;;;4967512;28;20532;-76
2023/05/06 03:11:58;;;;;;;4.70;4.30;;;11.20;99.90;;;;;;4963865;28;20449;-76
2023/05/06 03:14:24;;;;;;;5.83;4.50;;;11.10;99.90;;;;;;4970869;28;20457;-76
2023/05/06 03:16:51;;;;;;;6.07;4.50;;;11.10;99.90;;;;;;4959013;28;20489;-77
2023/05/06 03:19:19;;;;;;;5.83;5.30;;;11.10;99.90;;;;;;4967057;28;20875;-77
2023/05/06 03:21:46;;;;;;;6.20;4.67;;;11.10;99.90;;;;;;4965241;28;20863;-77
2023/05/06 03:24:12;;;;;;;5.93;5.17;;;11.10;99.90;;;;;;4963941;28;20514;-77
2023/05/06 03:26:39;;;;;;;6.50;5.00;;;11.10;99.90;;;;;;4963801;28;20835;-77
2023/05/06 03:29:06;;;;;;;8.50;4.53;;;11.10;99.90;;;;;;4967419;28;20457;-76
2023/05/06 03:31:32;;;;;;;6.23;4.93;;;11.10;99.90;;;;;;4967489;28;20527;-76
2023/05/06 03:33:59;;;;;;;8.63;5.33;;;11.10;99.90;;;;;;4966899;28;20461;-76
2023/05/06 03:36:27;;;;;;;6.87;5.97;;;11.20;99.90;;;;;;4966368;28;20463;-76
2023/05/06 03:38:54;;;;;;;7.23;5.20;;;11.20;99.90;;;;;;4966910;28;20449;-76
2023/05/06 03:41:21;;;;;;;5.30;4.47;;;11.30;99.90;;;;;;4962941;28;20875;-76
2023/05/06 03:43:47;;;;;;;5.93;4.80;;;11.30;99.90;;;;;;4964846;28;20449;-76
2023/05/06 03:46:14;;;;;;;5.33;4.83;;;11.30;99.90;;;;;;4969390;28;21001;-77
2023/05/06 03:48:40;;;;;;;5.20;4.70;;;11.30;99.90;;;;;;4963188;28;20493;-77
2023/05/06 03:51:07;;;;;;;7.73;5.33;;;11.30;99.90;;;;;;4963015;28;20893;-76
2023/05/06 03:53:35;;;;;;;6.90;5.57;;;11.20;99.90;;;;;;4966861;28;20930;-76
2023/05/06 03:56:02;;;;;;;5.57;5.07;;;11.20;99.90;;;;;;4962900;28;21014;-77
2023/05/06 03:58:28;;;;;;;4.87;4.40;;;11.20;99.90;;;;;;4970066;28;20453;-76
2023/05/06 04:00:55;;;;;;;5.40;4.57;;;11.10;99.90;;;;;;4967516;28;21201;-76
2023/05/06 04:03:21;;;;;;;5.27;4.83;;;11.10;99.90;;;;;;4961769;28;20460;-77
2023/05/06 04:05:49;;;;;;;6.70;4.87;;;11.10;99.90;;;;;;4962095;28;20457;-77
2023/05/06 04:08:16;;;;;;;5.50;5.00;;;11.00;99.90;;;;;;4974178;28;21187;-77
2023/05/06 04:10:45;;;;;;;6.30;5.17;;;11.00;99.90;;;;;;4965366;28;20999;-76
2023/05/06 04:13:12;;;;;;;10.23;5.17;;;11.00;99.90;;;;;;4962562;28;20454;-76
2023/05/06 04:15:40;;;;;;;6.53;5.30;;;10.90;99.90;;;;;;4962796;28;20505;-76
2023/05/06 04:18:07;;;;;;;9.00;4.67;;;10.90;99.90;;;;;;4965750;28;20516;-76
2023/05/06 04:20:33;;;;;;;12.73;5.20;;;10.90;99.90;;;;;;4966677;28;20858;-77
2023/05/06 04:23:01;;;;;;;10.63;5.33;;;10.90;99.90;;;;;;4966145;28;20453;-76
2023/05/06 04:25:28;;;;;;;7.40;5.33;;;10.90;99.90;;;;;;4966207;28;20457;-76
2023/05/06 04:27:56;;;;;;;6.50;5.17;;;10.80;99.90;;;;;;4963203;28;20516;-76
2023/05/06 04:30:23;;;;;;;6.13;5.50;;;10.90;99.90;;;;;;4968455;28;20476;-76
2023/05/06 04:32:49;;;;;;;8.23;5.50;;;10.90;99.90;;;;;;4960278;28;20465;-75
2023/05/06 04:35:16;;;;;;;6.23;5.53;;;10.90;99.90;;;;;;4964000;28;20465;-74
2023/05/06 04:37:43;;;;;;;7.30;6.00;;;10.90;99.90;;;;;;4966658;28;20461;-74
2023/05/06 04:40:12;;;;;;;6.40;5.80;;;10.90;99.90;;;;;;4966421;28;20485;-74
2023/05/06 04:42:39;;;;;;;8.57;5.83;;;10.90;99.90;;;;;;4964721;28;20993;-74
2023/05/06 04:45:08;;;;;;;10.67;5.43;;;10.90;99.90;;;;;;4962536;28;20458;-74
2023/05/06 04:47:34;;;;;;;9.77;6.00;;;11.00;99.90;;;;;;4969329;28;20484;-74
2023/05/06 04:50:01;;;;;;;6.50;5.80;;;11.00;99.90;;;;;;4962761;28;20469;-74
2023/05/06 04:52:28;;;;;;;6.03;5.27;;;11.00;99.90;;;;;;4964865;28;20513;-74
2023/05/06 04:54:55;;;;;;;6.10;5.50;;;11.00;99.90;;;;;;4963110;28;20507;-74
2023/05/06 04:57:21;;;;;;;6.60;5.70;;;11.00;99.90;;;;;;4962149;28;20454;-74
2023/05/06 04:59:48;;;;;;;7.93;6.00;;;11.10;99.90;;;;;;4965988;28;20531;-74
2023/05/06 05:02:16;;;;;;;9.67;5.20;;;11.10;99.90;;;;;;4959159;28;20461;-74
2023/05/06 05:04:42;;;;;;;5.90;5.40;;;11.20;99.90;;;;;;4968516;28;20500;-74
2023/05/06 05:07:09;;;;;;;5.27;4.87;;;11.30;99.90;;;;;;4972600;28;20484;-74
2023/05/06 05:09:36;;;;;;;5.27;4.70;;;11.40;99.90;;;;;;4965167;28;20457;-74
2023/05/06 05:12:02;;;;;;;9.50;5.20;;;11.50;99.90;;;;;;4961457;28;20457;-74
2023/05/06 05:14:29;;;;;;;6.30;5.70;;;11.60;99.90;;;;;;4962101;28;20453;-74
2023/05/06 05:16:56;;;;;;;5.67;5.03;;;11.70;99.90;;;;;;4963508;28;20497;-74
2023/05/06 05:19:24;;;;;;;6.60;4.97;;;11.90;99.90;;;;;;4964719;28;20516;-74
2023/05/06 05:21:50;;;;;;;6.00;5.40;;;12.10;99.90;;;;;;4965280;28;20509;-74
2023/05/06 05:24:17;;;;;;;6.33;5.30;;;12.10;99.90;;;;;;4965030;28;20515;-72
2023/05/06 05:26:43;;;;;;;7.33;5.07;;;12.10;99.90;;;;;;4964747;28;20454;-72
2023/05/06 05:29:10;;;;;;;5.90;5.40;;;12.30;99.90;;;;;;4964974;28;20543;-73
2023/05/06 05:31:37;;;;;;;5.90;4.90;;;12.40;99.90;;;;;;4964198;28;20481;-73
2023/05/06 05:34:03;;;;;;;9.00;5.50;;;12.50;99.90;;;;;;4961666;28;20521;-73
2023/05/06 05:36:31;;;;;;;5.70;5.20;;;12.60;99.90;;;;;;4961141;28;20469;-73
2023/05/06 05:38:58;;;;;;;6.07;5.00;;;12.70;99.90;;;;;;4963385;28;20508;-73
2023/05/06 05:41:25;;;;;;;6.00;5.20;;;12.90;99.90;;;;;;4969166;28;20481;-73
2023/05/06 05:43:52;;;;;;;5.27;4.60;;;12.90;99.90;;;;;;4962775;28;21234;-73
2023/05/06 05:46:18;;;;;;;8.10;5.20;;;13.00;99.90;;;;;;4951888;28;20507;-73
2023/05/06 05:48:45;;;;;;;7.10;5.23;;;13.00;99.90;;;;;;4966243;28;20492;-73
2023/05/06 05:51:12;;;;;;;7.27;4.97;;;13.10;99.90;;;;;;4961186;28;20986;-73
2023/05/06 05:53:39;;;;;;;5.37;4.93;;;13.30;99.90;;;;;;4961189;28;20521;-73
2023/05/06 05:56:07;;;;;;;5.40;5.00;;;13.40;99.90;;;;;;4960520;28;21033;-73
2023/05/06 05:58:33;;;;;;;6.03;5.23;;;13.50;99.90;;;;;;4961255;28;20565;-73
2023/05/06 06:01:00;;;;;;;5.87;5.27;;;13.40;99.90;;;;;;4963840;28;20476;-72
2023/05/06 06:03:27;;;;;;;5.93;5.00;;;13.60;99.90;;;;;;4955843;28;20955;-74
2023/05/06 06:05:54;;;;;;;9.40;5.13;;;13.70;99.90;;;;;;4957392;28;20461;-74
2023/05/06 06:08:21;;;;;;;6.57;5.97;;;13.90;99.90;;;;;;4958784;28;21017;-73
2023/05/06 06:10:48;;;;;;;6.27;5.67;;;14.20;99.90;;;;;;4961327;28;20532;-73
2023/05/06 06:13:15;;;;;;;6.33;5.30;;;14.40;99.90;;;;;;4964096;28;20515;-73
2023/05/06 06:15:42;;;;;;;5.60;5.10;;;14.70;99.90;;;;;;4963938;28;20941;-72
2023/05/06 06:18:08;;;;;;;6.87;5.30;;;15.00;99.90;;;;;;4963360;28;20457;-72
2023/05/06 06:20:35;;;;;;;6.37;4.70;;;15.30;99.90;;;;;;4963871;28;20484;-70
2023/05/06 06:23:02;;;;;;;9.60;5.00;;;15.40;99.90;;;;;;4956080;28;20462;-74
2023/05/06 06:25:29;;;;;;;6.43;5.07;;;15.60;99.90;;;;;;4966119;28;20450;-73
2023/05/06 06:27:57;;;;;;;6.00;4.55;;;15.80;99.90;;;;;;4959607;28;20522;-74
2023/05/06 06:30:23;;;;;;;5.63;5.00;;;15.70;99.90;;;;;;4960263;28;20229;-74
2023/05/06 06:32:51;;;;;;;5.00;4.47;;;15.70;99.90;;;;;;4960230;28;20512;-73
2023/05/06 06:35:19;;;;;;;4.97;4.57;;;15.80;99.90;;;;;;4965415;28;20512;-74
2023/05/06 06:37:45;;;;;;;8.20;5.23;;;15.80;99.90;;;;;;4951558;28;20469;-74
2023/05/06 06:40:13;;;;;;;6.40;4.40;;;16.00;99.90;;;;;;4951837;28;20478;-74
2023/05/06 06:42:40;;;;;;;5.40;4.90;;;16.10;99.90;;;;;;4956843;28;20866;-74
2023/05/06 06:45:09;;;;;;;6.77;5.53;;;16.20;99.90;;;;;;4967425;28;20453;-74
2023/05/06 06:47:36;;;;;;;6.67;5.37;;;16.50;99.90;;;;;;4965390;28;20494;-73
2023/05/06 06:50:03;;;;;;;5.90;5.30;;;16.60;99.90;;;;;;4957447;28;20480;-73
2023/05/06 06:52:29;;;;;;;5.13;4.73;;;16.80;99.90;;;;;;4970816;28;20456;-74
2023/05/06 06:54:56;;;;;;;10.40;5.43;;;16.90;99.90;;;;;;4958865;28;20966;-73
2023/05/06 06:57:23;;;;;;;6.13;5.53;;;17.00;99.90;;;;;;4952234;28;20432;-74
2023/05/06 06:59:51;;;;;;;6.13;5.47;;;17.20;99.90;;;;;;4951690;28;21072;-74
2023/05/06 07:02:19;;;;;;;9.60;5.70;;;17.30;99.90;;;;;;4952068;28;20556;-73
2023/05/06 07:04:46;;;;;;;7.80;4.90;;;17.40;99.90;;;;;;4951594;28;20953;-73
2023/05/06 07:07:12;;;;;;;6.40;5.47;;;17.20;99.90;;;;;;4965422;28;20523;-73
2023/05/06 07:09:39;;;;;;;9.27;5.17;;;17.00;99.90;;;;;;4951997;28;20859;-73
2023/05/06 07:12:06;;;;;;;6.23;5.43;;;17.00;99.90;;;;;;4959963;28;20442;-72
2023/05/06 07:14:33;;;;;;;9.00;5.53;;;16.90;99.90;;;;;;4952218;28;20553;-73
2023/05/06 07:17:00;;;;;;;9.33;5.67;;;17.10;99.90;;;;;;4961523;28;20508;-73
2023/05/06 07:19:30;;;;;;;6.33;5.40;;;17.30;99.90;;;;;;4951731;28;20458;-73
2023/05/06 07:21:57;;;;;;;7.30;4.97;;;17.50;99.90;;;;;;4951723;28;20432;-73
2023/05/06 07:24:23;;;;;;;14.20;5.50;;;17.80;99.90;;;;;;4952841;28;20457;-72
2023/05/06 07:26:50;;;;;;;6.27;5.57;;;18.00;99.90;;;;;;4951515;28;20495;-73
2023/05/06 07:29:16;;;;;;;8.23;6.10;;;18.20;99.90;;;;;;4953123;28;20490;-73
2023/05/06 07:31:43;;;;;;;6.20;5.40;;;18.10;99.90;;;;;;4959755;28;20990;-73
2023/05/06 07:34:10;;;;;;;6.60;5.47;;;17.90;99.90;;;;;;4954447;28;20458;-73
2023/05/06 07:36:41;;;;;;;6.93;5.93;;;17.90;99.90;;;;;;4953887;28;20862;-73
2023/05/06 07:39:08;;;;;;;7.90;5.30;;;18.10;99.90;;;;;;4951342;28;20624;-72
2023/05/06 07:41:35;;;;;;;6.50;5.70;;;18.40;99.90;;;;;;4951823;28;20452;-72
2023/05/06 07:44:02;;;;;;;6.53;5.93;;;18.60;99.90;;;;;;4963674;28;20443;-72
2023/05/06 07:46:28;;;;;;;7.73;6.00;;;18.50;99.90;;;;;;4968978;28;20489;-72
2023/05/06 07:48:55;;;;;;;7.03;5.30;;;18.40;99.90;;;;;;4956388;28;20905;-73
2023/05/06 07:51:22;;;;;;;6.67;5.60;;;18.60;99.90;;;;;;4953264;28;20503;-73
2023/05/06 07:53:50;;;;;;;8.90;5.90;;;18.90;99.90;;;;;;4964984;28;20434;-72
2023/05/06 07:56:17;;;;;;;7.00;5.17;;;19.30;99.90;;;;;;4970307;28;20461;-73
2023/05/06 07:58:44;;;;;;;6.40;5.80;;;19.60;99.90;;;;;;4974571;28;20435;-73
2023/05/06 08:01:11;;;;;;;8.07;5.63;;;19.90;99.90;;;;;;4957600;28;20510;-72
2023/05/06 08:03:37;;;;;;;11.53;6.00;;;20.10;99.90;;;;;;4964504;28;20427;-73
2023/05/06 08:06:05;;;;;;;8.33;5.53;;;20.10;99.90;;;;;;4967399;28;20463;-73
2023/05/06 08:08:32;;;;;;;7.33;5.50;;;20.20;99.90;;;;;;4961557;28;20501;-73
2023/05/06 08:11:01;;;;;;;7.03;6.33;;;20.50;99.90;;;;;;4967585;28;20973;-74
2023/05/06 08:13:27;;;;;;;6.10;5.50;;;20.70;99.90;;;;;;4955688;28;20457;-74
2023/05/06 08:15:55;;;;;;;6.73;5.73;;;20.80;99.90;;;;;;4954002;28;20472;-74
2023/05/06 08:18:22;;;;;;;7.07;5.80;;;20.90;99.90;;;;;;4966814;28;20460;-73
2023/05/06 08:20:48;;;;;;;6.53;5.60;;;20.90;99.90;;;;;;4973854;28;20476;-73
2023/05/06 08:23:15;;;;;;;9.03;5.77;;;20.90;99.90;;;;;;4973670;28;20531;-74
2023/05/06 08:25:42;;;;;;;6.50;5.80;;;21.10;99.90;;;;;;4973842;28;20448;-73
2023/05/06 08:28:10;;;;;;;6.50;5.57;;;21.30;99.90;;;;;;4962436;28;20545;-73
2023/05/06 08:30:36;;;;;;;10.87;5.90;;;20.90;99.90;;;;;;4954280;28;20535;-73
2023/05/06 08:33:03;;;;;;;5.93;5.43;;;20.80;99.90;;;;;;4970931;28;21211;-73
2023/05/06 08:35:30;;;;;;;7.00;6.17;;;20.90;99.90;;;;;;4973406;28;20485;-73
2023/05/06 08:37:56;;;;;;;6.47;5.87;;;21.10;99.90;;;;;;4970453;28;20547;-74
2023/05/06 08:40:26;;;;;;;7.97;6.37;;;21.00;99.90;;;;;;4954315;28;20460;-73
2023/05/06 08:42:57;;;;;;;8.77;5.90;;;21.20;99.90;;;;;;4954429;28;20974;-74
2023/05/06 08:45:25;;;;;;;10.40;6.90;;;21.40;99.90;;;;;;4962134;28;20952;-74
2023/05/06 08:47:52;;;;;;;7.70;5.57;;;21.10;99.90;;;;;;4969149;28;20520;-73
2023/05/06 08:50:19;;;;;;;8.13;6.30;;;20.80;99.90;;;;;;4953481;28;21263;-74
2023/05/06 08:52:48;;;;;;;7.73;6.33;;;20.80;99.90;;;;;;4953545;28;20453;-73
2023/05/06 08:55:16;;;;;;;6.73;5.53;;;20.40;99.90;;;;;;4953334;28;20453;-73
2023/05/06 08:57:45;;;;;;;9.53;6.40;;;20.20;99.90;;;;;;4954420;28;20448;-73
2023/05/06 09:00:13;;;;;;;6.63;5.90;;;20.10;99.90;;;;;;4961965;28;20548;-73
2023/05/06 09:02:42;;;;;;;10.63;6.47;;;20.10;99.90;;;;;;4968718;28;20545;-73
2023/05/06 09:05:10;;;;;;;6.77;5.60;;;19.60;99.90;;;;;;4962944;28;20449;-72
2023/05/06 09:07:36;;;;;;;17.10;5.73;;;19.20;99.90;;;;;;4968572;28;20497;-72
2023/05/06 09:10:06;;;;;;;6.80;4.93;;;18.80;99.90;;;;;;4968401;28;20471;-72
2023/05/06 09:12:36;;;;;;;6.00;5.40;;;18.50;99.90;;;;;;4953985;28;20461;-72
2023/05/06 09:15:03;;;;;;;7.33;4.97;;;18.20;99.90;;;;;;4953472;28;20429;-72
2023/05/06 09:17:31;;;;;;;6.80;4.87;;;18.20;99.90;;;;;;4953058;28;20487;-72
2023/05/06 09:19:59;;;;;;;6.37;5.30;;;18.20;99.90;;;;;;4960980;28;20457;-72
2023/05/06 09:22:27;;;;;;;5.30;4.20;;;18.20;99.90;;;;;;4963760;28;20903;-73
2023/05/06 09:24:56;;;;;;;7.93;4.23;;;18.10;99.90;;;;;;4963856;28;20436;-73
2023/05/06 09:27:23;;;;;;;8.40;4.83;;;17.90;99.90;;;;;;4972151;28;20459;-72
2023/05/06 09:30:01;;;;;;;6.03;4.57;;;17.70;99.90;;;;;;4954088;28;20546;-72
2023/05/06 09:32:28;;;;;;;6.00;4.40;;;17.60;99.90;;;;;;4954152;28;20527;-71
2023/05/06 09:34:55;;;;;;;8.10;4.90;;;17.60;99.90;;;;;;4956224;28;20460;-72
2023/05/06 09:37:25;;;;;;;6.80;4.33;;;17.50;99.90;;;;;;4956132;28;20465;-72
2023/05/06 09:39:54;;;;;;;7.10;5.03;;;17.50;99.90;;;;;;4968814;28;20452;-72
2023/05/06 09:42:23;;;;;;;7.60;5.13;;;17.50;99.90;;;;;;4954102;28;20454;-72
2023/05/06 09:44:51;;;;;;;6.43;4.67;;;17.50;99.90;;;;;;4967557;28;20982;-72
2023/05/06 09:47:18;;;;;;;5.73;4.90;;;17.60;99.90;;;;;;4970950;28;20458;-69
2023/05/06 09:49:45;;;;;;;6.90;5.20;;;17.70;99.90;;;;;;4959994;28;20473;-69
2023/05/06 09:52:12;;;;;;;10.70;5.37;;;18.00;99.90;;;;;;4961487;28;20428;-70
2023/05/06 09:54:40;;;;;;;5.50;4.70;;;18.50;99.90;;;;;;4972022;28;20624;-69
2023/05/06 09:57:09;;;;;;;6.90;5.37;;;19.20;99.90;;;;;;4964849;28;20494;-69
2023/05/06 09:59:36;;;;;;;7.93;5.40;;;19.60;99.90;;;;;;4964708;28;20452;-70
2023/05/06 10:02:04;;;;;;;11.73;5.60;;;19.80;99.90;;;;;;4962832;28;20431;-70
2023/05/06 10:04:35;;;;;;;6.43;4.90;;;20.00;99.90;;;;;;4959064;28;20919;-69
2023/05/06 10:07:03;;;;;;;8.00;5.20;;;20.10;99.90;;;;;;4971802;28;20428;-70
2023/05/06 10:09:30;;;;;;;10.43;5.33;;;20.30;99.90;;;;;;4962222;28;20460;-69
2023/05/06 10:11:59;;;;;;;7.10;4.63;;;20.60;99.90;;;;;;4969529;28;20544;-70
2023/05/06 10:14:26;;;;;;;6.50;5.70;;;20.80;99.90;;;;;;4954885;28;20458;-71
2023/05/06 10:16:53;;;;;;;7.07;5.67;;;20.30;99.90;;;;;;4952531;28;20424;-69
2023/05/06 10:19:25;;;;;;;7.57;5.57;;;20.10;99.90;;;;;;4971289;28;20461;-68
2023/05/06 10:22:01;;;;;;;6.47;5.20;;;20.10;99.90;;;;;;4966840;28;20518;-68
2023/05/06 10:24:33;;;;;;;7.90;4.80;;;20.30;99.90;;;;;;4962436;28;20507;-70
2023/05/06 10:27:05;;;;;;;5.10;4.60;;;20.40;99.90;;;;;;4952565;28;20456;-71
2023/05/06 10:29:35;;;;;;;10.07;5.20;;;20.80;99.90;;;;;;4969837;28;20488;-69
2023/05/06 10:32:03;;;;;;;8.87;5.30;;;21.20;99.90;;;;;;4971369;28;20975;-70
2023/05/06 10:34:40;;;;;;;5.03;4.33;;;21.40;99.90;;;;;;4967083;28;20464;-71
2023/05/06 10:37:08;;;;;;;4.87;4.40;;;21.60;99.90;;;;;;4953412;28;20842;-71
2023/05/06 10:39:35;;;;;;;6.83;5.80;;;22.10;99.90;;;;;;4952518;28;20445;-70
2023/05/06 10:42:04;;;;;;;6.47;5.23;;;22.20;99.90;;;;;;4952453;28;20517;-70
2023/05/06 10:44:56;;;;;;;7.47;5.20;;;22.10;99.90;;;;;;4952196;28;20453;-70
2023/05/06 10:47:22;;;;;;;9.50;5.77;;;22.10;99.90;;;;;;4960199;28;20449;-70
2023/05/06 10:50:19;;;;;;;6.80;5.37;;;21.90;99.90;;;;;;4953893;28;20497;-70
2023/05/06 10:52:47;;;;;;;5.67;4.10;;;21.50;99.90;;;;;;4959512;28;20452;-70
2023/05/06 10:55:29;;;;;;;8.90;5.33;;;21.30;99.90;;;;;;4956261;28;20969;-70
2023/05/06 10:58:02;;;;;;;8.40;4.70;;;21.20;99.90;;;;;;4950629;28;20472;-69
2023/05/06 11:00:31;;;;;;;4.47;4.07;;;21.30;99.90;;;;;;4956009;28;20516;-70
2023/05/06 11:03:00;;;;;;;6.53;3.53;;;20.80;99.90;;;;;;4962952;28;20494;-70
2023/05/06 11:05:27;;;;;;;4.13;3.73;;;20.80;99.90;;;;;;4961133;28;20961;-71
2023/05/06 11:08:08;;;;;;;4.33;3.47;;;20.90;99.90;;;;;;4966871;28;21014;-70
2023/05/06 11:10:35;;;;;;;7.37;4.70;;;20.60;99.90;;;;;;4971338;28;20598;-70
2023/05/06 11:13:27;;;;;;;6.03;3.40;;;20.40;99.90;;;;;;4970966;28;20453;-70
2023/05/06 11:15:55;;;;;;;8.77;4.13;;;20.70;99.90;;;;;;4958530;28;20453;-70
2023/05/06 11:18:41;;;;;;;7.67;3.47;;;20.90;99.90;;;;;;4954706;28;20420;-70
2023/05/06 11:21:39;;;;;;;5.97;3.80;;;20.90;99.90;;;;;;4970963;28;21118;-70
2023/05/06 11:24:06;;;;;;;6.67;4.30;;;21.10;99.90;;;;;;4953349;28;20457;-71
2023/05/06 11:26:33;;;;;;;4.40;4.00;;;21.20;99.90;;;;;;4953444;28;20469;-70
2023/05/06 11:29:03;;;;;;;5.23;4.10;;;21.10;99.90;;;;;;4953603;28;20861;-70
2023/05/06 11:31:37;;;;;;;14.23;7.70;;;20.70;99.90;;;;;;4974924;28;20495;-68
2023/05/06 11:34:08;;;;;;;7.17;4.20;;;20.70;99.90;;;;;;4962127;28;20861;-70
2023/05/06 11:36:35;;;;;;;3.70;3.30;;;21.00;99.90;;;;;;4971768;28;21066;-69
2023/05/06 11:39:06;;;;;;;4.90;3.20;;;21.00;99.90;;;;;;4974264;28;20479;-69
2023/05/06 11:41:33;;;;;;;3.50;3.20;;;21.10;99.90;;;;;;4974879;28;20476;-69
2023/05/06 11:44:01;;;;;;;3.90;3.10;;;21.00;99.90;;;;;;4973319;28;20449;-70
2023/05/06 11:46:31;;;;;;;6.50;3.50;;;20.80;99.90;;;;;;4972675;28;20593;-70
2023/05/06 11:48:58;;;;;;;5.20;3.57;;;21.10;99.90;;;;;;4967627;28;20475;-69
2023/05/06 11:51:25;;;;;;;6.20;3.80;;;21.00;99.90;;;;;;4954978;28;21099;-69
2023/05/06 11:53:52;;;;;;;5.50;3.50;;;20.70;99.90;;;;;;4955171;28;20472;-69
2023/05/06 11:56:19;;;;;;;5.30;2.90;;;20.80;99.90;;;;;;4955134;28;20457;-69
2023/05/06 11:58:46;;;;;;;4.93;3.17;;;20.50;99.90;;;;;;4965523;28;21109;-68
2023/05/06 12:01:14;;;;;;;7.33;4.00;;;20.50;99.90;;;;;;4958899;28;20481;-69
2023/05/06 12:03:41;;;;;;;4.20;3.63;;;20.30;99.90;;;;;;4961509;28;20458;-69
2023/05/06 12:06:07;;;;;;;7.67;4.50;;;20.30;99.90;;;;;;4970670;28;20461;-69
2023/05/06 12:08:36;;;;;;;3.53;3.23;;;20.40;99.90;;;;;;4969436;28;20513;-69
2023/05/06 12:11:04;;;;;;;7.50;4.10;;;20.50;99.90;;;;;;4954598;28;20500;-68
2023/05/06 12:13:33;;;;;;;3.83;3.47;;;20.40;99.90;;;;;;4973580;28;20512;-68
2023/05/06 12:16:00;;;;;;;5.53;4.03;;;20.30;99.90;;;;;;4959372;28;20489;-71
2023/05/06 12:18:29;;;;;;;4.40;4.00;;;20.20;99.90;;;;;;4954352;28;20464;-69
2023/05/06 12:20:56;;;;;;;4.70;4.20;;;20.10;99.90;;;;;;4964698;28;20467;-68
2023/05/06 12:23:23;;;;;;;5.87;3.80;;;19.90;99.90;;;;;;4954934;28;20436;-69
2023/05/06 12:26:01;;;;;;;4.50;3.07;;;20.00;99.90;;;;;;4968789;28;20456;-69
2023/05/06 12:28:28;;;;;;;6.53;3.50;;;20.00;99.90;;;;;;4957307;28;20741;-70
2023/05/06 12:30:55;;;;;;;3.00;2.70;;;20.10;99.90;;;;;;4954518;28;20508;-69
2023/05/06 12:33:21;;;;;;;5.07;3.27;;;20.20;99.90;;;;;;4953042;28;20892;-69
2023/05/06 12:35:50;;;;;;;5.57;2.70;;;20.20;99.90;;;;;;4958520;28;20498;-67
2023/05/06 12:38:18;;;;;;;2.73;2.50;;;20.40;99.90;;;;;;4960113;28;20532;-68
2023/05/06 12:40:52;;;;;;;6.10;2.97;;;20.70;99.90;;;;;;4952853;28;20447;-68
2023/05/06 12:43:18;;;;;;;3.20;2.70;;;20.70;99.90;;;;;;4952499;28;20466;-68
2023/05/06 12:46:02;;;;;;;4.47;2.70;;;20.50;99.90;;;;;;4957059;28;20217;-68
2023/05/06 12:48:29;;;;;;;12.53;4.47;;;20.30;99.90;;;;;;4969333;28;20512;-68
2023/05/06 12:50:57;;;;;;;4.13;2.43;;;20.40;99.90;;;;;;4962177;28;20497;-68